Minnesota Lake, Minnesota
Current Conditions -  °F | °C
As of 8:34 AM on Friday 28 Nov 2014 (Local Time) from KACQ Reporting Station
Clear Clear  
Wind Chill:   Ceiling: Unl
Heat Index: 18°   Visibility: 10mi
Dew Point:   Wind: 13mph
Humidity: 68%   Direction: 140°SE
Pressure: 29.96"   Gusts: NA
Location:  43.84°N, 93.83°W
Report Text: KACQ 281434Z AUTO 14011KT 10SM CLR M08/M13 A2996 RMK AO2
Loading
Personal Weather Stations






























Interactive Weather Map New forecast layout! Learn more

10-Day Weather Forecast

Advertisements
Track Severe Weather on mobile